Time;durP1;ratioP1;P1;durP2;ratioP2;P2;SDS_P1;SDS_P2;PMS_P1;PMS_P2;Temp;Humidity;BMP_temperature;BMP_pressure;BME280_temperature;BME280_humidity;BME280_pressure;Samples;Min_cycle;Max_cycle;Signal;HPM_P1;HPM_P2
2021/01/20 00:02:45;;;;;;;17.73;12.20;;;;;;;5.89;98.00;100078.69;6250593;28;20084;-73
2021/01/20 00:05:45;;;;;;;17.70;11.13;;;;;;;5.97;96.76;100097.47;6250636;28;20053;-73
2021/01/20 00:08:47;;;;;;;18.55;11.30;;;;;;;5.99;97.30;100073.91;6249731;28;20052;-73
2021/01/20 00:11:48;;;;;;;19.10;10.43;;;;;;;5.92;96.99;100085.56;6249994;28;20045;-73
2021/01/20 00:14:49;;;;;;;23.67;10.27;;;;;;;6.08;95.25;100086.53;6249724;28;20049;-73
2021/01/20 00:17:50;;;;;;;19.42;10.27;;;;;;;5.92;95.60;100089.00;6249650;28;20494;-73
2021/01/20 00:20:51;;;;;;;15.38;10.30;;;;;;;5.89;95.93;100081.28;6249087;28;20049;-73
2021/01/20 00:23:52;;;;;;;22.05;10.50;;;;;;;5.90;95.97;100082.13;6249303;28;20510;-73
2021/01/20 00:26:53;;;;;;;17.48;10.80;;;;;;;5.87;96.52;100077.91;6249371;28;20046;-73
2021/01/20 00:29:54;;;;;;;17.15;10.57;;;;;;;5.83;96.00;100078.97;6250064;28;20049;-73
2021/01/20 00:32:55;;;;;;;16.30;9.20;;;;;;;5.97;95.13;100076.59;6250661;28;20057;-73
2021/01/20 00:35:56;;;;;;;14.57;8.70;;;;;;;5.90;95.13;100079.53;6249326;28;20099;-73
2021/01/20 00:38:58;;;;;;;15.68;8.45;;;;;;;5.99;94.83;100073.91;6249037;28;20049;-73
2021/01/20 00:41:58;;;;;;;16.35;7.95;;;;;;;5.99;94.31;100095.63;6249028;28;20548;-73
2021/01/20 00:45:00;;;;;;;13.27;8.07;;;;;;;5.90;94.24;100058.66;6265372;23;20082;-77
2021/01/20 00:48:01;;;;;;;12.07;7.78;;;;;;;5.80;93.60;100055.63;6224286;28;20141;-77
2021/01/20 00:51:02;;;;;;;15.23;8.30;;;;;;;5.71;94.96;100064.69;6222732;28;20556;-78
2021/01/20 00:54:03;;;;;;;13.77;8.23;;;;;;;5.63;94.74;100066.78;6224501;28;20082;-77
2021/01/20 00:57:05;;;;;;;14.80;8.55;;;;;;;5.77;94.74;100061.00;6224060;28;20053;-77
2021/01/20 01:00:07;;;;;;;14.65;9.52;;;;;;;5.66;95.05;100061.44;6224083;28;20498;-78
2021/01/20 01:03:08;;;;;;;12.55;8.13;;;;;;;5.87;94.13;100059.66;6248765;28;20049;-78
2021/01/20 01:06:09;;;;;;;14.45;9.60;;;;;;;5.68;94.77;100054.44;6248288;28;20116;-77
2021/01/20 01:09:11;;;;;;;16.67;9.52;;;;;;;5.68;93.86;100045.72;6248378;28;20045;-80
2021/01/20 01:12:12;;;;;;;15.15;9.77;;;;;;;5.78;93.99;100044.44;6248379;28;20115;-79
2021/01/20 01:15:13;;;;;;;17.55;10.65;;;;;;;5.73;93.23;100043.78;6248676;28;20053;-79
2021/01/20 01:18:14;;;;;;;16.58;10.15;;;;;;;5.59;93.89;100045.25;6248120;28;20061;-79
2021/01/20 01:21:15;;;;;;;14.05;9.02;;;;;;;5.66;92.28;100045.81;6226709;28;20133;-78
2021/01/20 01:24:16;;;;;;;13.75;9.80;;;;;;;5.69;93.07;100039.63;6223616;28;20064;-78
2021/01/20 01:27:17;;;;;;;21.48;10.15;;;;;;;5.57;93.23;100047.06;6223628;28;20053;-78
2021/01/20 01:30:19;;;;;;;17.98;11.32;;;;;;;5.65;93.87;100041.53;6223186;28;20057;-78
2021/01/20 01:33:19;;;;;;;15.20;9.43;;;;;;;5.48;93.56;100046.63;6224936;28;20499;-78
2021/01/20 01:36:20;;;;;;;19.27;7.82;;;;;;;5.63;92.72;100024.25;6223288;28;20096;-78
2021/01/20 01:39:22;;;;;;;15.25;8.68;;;;;;;5.66;91.24;100024.97;6223091;28;20042;-78
2021/01/20 01:42:27;;;;;;;13.20;8.27;;;;;;;5.55;91.34;100028.06;6223100;28;20100;-79
2021/01/20 01:45:28;;;;;;;15.63;9.25;;;;;;;5.48;93.56;100025.78;6223041;28;20046;-79
2021/01/20 01:48:29;;;;;;;18.58;8.93;;;;;;;5.55;92.37;100020.22;6222884;28;20541;-78
2021/01/20 01:51:30;;;;;;;19.90;9.90;;;;;;;5.51;92.43;100017.84;6222957;28;20056;-78
2021/01/20 01:54:31;;;;;;;17.67;7.70;;;;;;;5.55;91.84;100011.56;6223295;28;20058;-78
2021/01/20 01:57:32;;;;;;;16.27;8.60;;;;;;;5.53;92.21;100006.41;6222856;28;20053;-78
2021/01/20 02:00:34;;;;;;;15.13;7.65;;;;;;;5.49;91.91;100004.84;6227904;28;20119;-78
2021/01/20 02:03:35;;;;;;;17.17;7.78;;;;;;;5.56;91.95;100002.84;6247366;28;20050;-78
2021/01/20 02:06:37;;;;;;;13.73;7.65;;;;;;;5.47;91.99;99992.81;6246874;28;20060;-79
2021/01/20 02:09:39;;;;;;;16.50;7.18;;;;;;;5.63;90.31;99992.97;6246843;28;20473;-78
2021/01/20 02:12:52;;;;;;;13.73;7.38;;;;;;;5.51;91.60;99997.81;6247073;28;20049;-79
2021/01/20 02:16:00;;;;;;;13.82;7.30;;;;;;;5.46;92.01;99985.94;6247090;28;20057;-78
2021/01/20 02:19:06;;;;;;;11.90;6.88;;;;;;;5.33;92.86;99978.63;6238447;28;20064;-78
2021/01/20 02:22:16;;;;;;;19.65;8.95;;;;;;;5.35;92.01;99983.78;6222789;28;20046;-79
2021/01/20 02:26:02;;;;;;;16.92;7.82;;;;;;;5.40;91.94;99981.81;6222359;28;20446;-78
2021/01/20 02:29:13;;;;;;;14.88;7.28;;;;;;;5.43;91.11;99975.63;6122245;29;20059;-79
2021/01/20 02:32:18;;;;;;;17.30;7.32;;;;;;;5.37;92.33;99975.91;6232342;28;20103;-79
2021/01/20 02:35:22;;;;;;;11.77;6.78;;;;;;;5.38;92.35;99975.84;6246641;28;20050;-78
2021/01/20 02:38:24;;;;;;;12.60;7.18;;;;;;;5.55;90.17;99967.28;6246776;28;20049;-79
2021/01/20 02:41:27;;;;;;;12.98;6.43;;;;;;;5.39;91.65;99969.69;6246407;28;20056;-78
2021/01/20 02:44:28;;;;;;;9.68;5.97;;;;;;;5.35;91.56;99968.97;6246836;28;20050;-79
2021/01/20 02:47:30;;;;;;;10.63;5.63;;;;;;;5.47;92.14;99967.59;6246529;28;20072;-79
2021/01/20 02:50:31;;;;;;;16.48;6.60;;;;;;;5.33;90.44;99964.78;6246789;28;20042;-79
2021/01/20 02:53:32;;;;;;;11.55;5.63;;;;;;;5.42;91.22;99971.34;6246686;28;20540;-79
2021/01/20 02:56:33;;;;;;;13.95;6.22;;;;;;;5.29;91.09;99971.03;6242160;28;20061;-78
2021/01/20 02:59:38;;;;;;;9.73;5.20;;;;;;;5.29;91.36;99971.03;6221958;28;20461;-78
2021/01/20 03:02:43;;;;;;;11.65;4.78;;;;;;;5.37;90.31;99966.34;6222903;28;20077;-78
2021/01/20 03:05:45;;;;;;;14.07;5.22;;;;;;;5.30;89.43;99964.91;6222190;28;20046;-78
2021/01/20 03:08:47;;;;;;;14.63;5.22;;;;;;;5.20;89.24;99963.63;6221326;28;20392;-79
2021/01/20 03:11:49;;;;;;;10.05;4.47;;;;;;;5.32;89.04;99955.28;6222112;28;20122;-79
2021/01/20 03:14:52;;;;;;;13.75;4.93;;;;;;;5.26;89.13;99951.16;6226253;28;20050;-79
2021/01/20 03:17:54;;;;;;;9.80;3.97;;;;;;;5.15;88.52;99949.97;6227132;28;20133;-78
2021/01/20 03:20:55;;;;;;;13.98;4.57;;;;;;;5.12;90.92;99945.72;6226790;28;20458;-78
2021/01/20 03:23:56;;;;;;;9.90;4.35;;;;;;;5.13;90.14;99938.75;6227173;28;20046;-79
2021/01/20 03:26:57;;;;;;;12.35;3.97;;;;;;;5.29;88.97;99944.97;6226179;28;20060;-78
2021/01/20 03:29:58;;;;;;;8.93;3.38;;;;;;;5.14;91.26;99940.47;6225808;28;20136;-79
2021/01/20 03:32:59;;;;;;;14.48;3.85;;;;;;;5.15;92.15;99937.78;6241117;28;20045;-79
2021/01/20 03:36:00;;;;;;;13.68;4.22;;;;;;;5.06;90.48;99946.00;6250548;28;20136;-78
2021/01/20 03:39:06;;;;;;;10.13;3.60;;;;;;;4.95;91.07;99941.25;6250216;28;20049;-78
2021/01/20 03:42:07;;;;;;;8.60;3.78;;;;;;;5.12;89.42;99931.84;6250669;28;20057;-78
2021/01/20 03:45:09;;;;;;;9.45;4.00;;;;;;;5.13;90.13;99941.34;6250573;28;20053;-79
2021/01/20 03:48:10;;;;;;;12.10;3.67;;;;;;;5.11;89.34;99932.78;6250563;28;20064;-79
2021/01/20 03:51:11;;;;;;;13.63;3.20;;;;;;;5.17;89.84;99928.13;6250397;28;20045;-79
2021/01/20 03:54:13;;;;;;;7.32;3.10;;;;;;;5.12;88.70;99937.06;6250664;28;20049;-79
2021/01/20 03:57:14;;;;;;;6.65;3.20;;;;;;;5.08;90.41;99936.34;6235278;28;20045;-79
2021/01/20 04:00:16;;;;;;;16.17;3.40;;;;;;;5.19;87.48;99925.47;6225518;28;20056;-78
2021/01/20 04:03:18;;;;;;;10.32;3.75;;;;;;;5.17;87.87;99925.53;6239091;28;20211;-79
2021/01/20 04:06:19;;;;;;;7.75;3.25;;;;;;;5.07;88.32;99925.09;6229594;28;20112;-79
2021/01/20 04:09:20;;;;;;;9.43;3.50;;;;;;;5.27;87.69;99912.97;6225171;28;20057;-79
2021/01/20 04:12:20;;;;;;;9.88;3.47;;;;;;;5.15;88.58;99916.94;6225387;28;20181;-79
2021/01/20 04:15:21;;;;;;;9.93;3.50;;;;;;;5.16;87.66;99921.22;6225429;28;20057;-78
2021/01/20 04:18:23;;;;;;;9.00;3.25;;;;;;;5.23;87.42;99908.78;6226776;28;20096;-78
2021/01/20 04:21:24;;;;;;;16.58;3.63;;;;;;;5.11;88.49;99909.34;6224908;28;20050;-79
2021/01/20 04:24:25;;;;;;;10.05;3.65;;;;;;;5.22;88.28;99914.91;6225413;28;20050;-79
2021/01/20 04:27:26;;;;;;;10.75;3.70;;;;;;;5.20;87.07;99908.91;6225154;28;20050;-79
2021/01/20 04:30:27;;;;;;;13.95;5.32;;;;;;;5.11;88.02;99901.53;6224742;28;20092;-79
2021/01/20 04:33:29;;;;;;;13.63;3.40;;;;;;;5.19;87.60;99894.22;6225324;28;20100;-79
2021/01/20 04:36:30;;;;;;;11.75;3.50;;;;;;;5.24;86.92;99892.25;6224825;28;20042;-79
2021/01/20 04:39:31;;;;;;;7.07;3.35;;;;;;;5.13;87.22;99884.06;6226029;28;20054;-79
2021/01/20 04:42:32;;;;;;;13.77;4.00;;;;;;;5.13;86.92;99882.28;6224968;28;20621;-79
2021/01/20 04:45:33;;;;;;;8.70;3.47;;;;;;;5.28;85.81;99888.59;6224887;28;20088;-78
2021/01/20 04:48:35;;;;;;;10.20;3.83;;;;;;;5.26;87.64;99895.63;6224646;28;20050;-79
2021/01/20 04:51:40;;;;;;;11.13;3.13;;;;;;;5.38;86.54;99895.06;6224707;28;20503;-80
2021/01/20 04:54:43;;;;;;;12.48;3.95;;;;;;;5.22;86.30;99887.13;6224794;28;20050;-79
2021/01/20 04:57:44;;;;;;;7.90;3.50;;;;;;;5.45;85.38;99893.00;6223893;28;20396;-78
2021/01/20 05:00:46;;;;;;;11.43;3.90;;;;;;;5.39;85.72;99883.72;6224483;28;20045;-79
2021/01/20 05:03:48;;;;;;;8.82;4.10;;;;;;;5.25;86.64;99878.31;6243623;28;20053;-81
2021/01/20 05:06:49;;;;;;;10.57;3.80;;;;;;;5.42;85.40;99867.97;6248004;28;20045;-77
2021/01/20 05:09:50;;;;;;;11.85;4.28;;;;;;;5.41;86.74;99871.50;6223229;28;20053;-78
2021/01/20 05:12:51;;;;;;;10.05;3.25;;;;;;;5.26;87.09;99878.22;6223977;28;20045;-81
2021/01/20 05:15:52;;;;;;;9.20;3.95;;;;;;;5.66;84.44;99871.19;6223408;28;20111;-80
2021/01/20 05:18:54;;;;;;;9.43;4.60;;;;;;;5.38;85.71;99879.44;6224088;28;20050;-80
2021/01/20 05:22:04;;;;;;;7.85;4.18;;;;;;;5.40;85.85;99868.94;6221591;28;20046;-81
2021/01/20 05:25:06;;;;;;;9.50;4.82;;;;;;;5.48;85.65;99872.03;6223368;28;20050;-78
2021/01/20 05:28:21;;;;;;;9.65;3.55;;;;;;;5.58;84.58;99865.47;6223989;28;20046;-80
2021/01/20 05:31:26;;;;;;;11.25;3.90;;;;;;;5.70;84.17;99853.63;6223582;28;20050;-80
2021/01/20 05:34:29;;;;;;;10.18;3.75;;;;;;;5.62;83.86;99853.16;6223342;28;20053;-81
2021/01/20 05:37:30;;;;;;;14.35;4.50;;;;;;;5.60;84.10;99848.03;6222342;28;20422;-79
2021/01/20 05:40:34;;;;;;;7.82;4.05;;;;;;;5.52;84.65;99855.34;6223346;28;20418;-81
2021/01/20 05:43:35;;;;;;;6.45;3.58;;;;;;;5.73;84.93;99843.06;6223690;28;20049;-79
2021/01/20 05:46:38;;;;;;;6.18;3.28;;;;;;;5.60;85.00;99841.03;6222901;28;20568;-79
2021/01/20 05:49:40;;;;;;;7.60;3.38;;;;;;;5.84;83.65;99839.00;6224131;28;20045;-81
2021/01/20 05:52:41;;;;;;;10.10;3.88;;;;;;;5.73;85.28;99843.06;6223566;28;20050;-78
2021/01/20 05:55:42;;;;;;;9.02;3.58;;;;;;;5.58;85.20;99858.50;6222842;28;20187;-80
2021/01/20 05:58:43;;;;;;;9.45;3.45;;;;;;;5.52;85.98;99850.97;6222750;28;20050;-80
2021/01/20 06:01:45;;;;;;;8.40;3.45;;;;;;;5.66;87.34;99847.72;6223211;28;20096;-80
2021/01/20 06:04:48;;;;;;;7.78;3.53;;;;;;;5.63;87.61;99840.03;6222825;28;20057;-81
2021/01/20 06:07:50;;;;;;;9.65;3.42;;;;;;;5.52;87.84;99832.72;6222916;28;20418;-80
2021/01/20 06:10:51;;;;;;;9.00;3.10;;;;;;;5.50;87.80;99829.38;6222742;28;20060;-80
2021/01/20 06:13:53;;;;;;;11.13;3.78;;;;;;;5.53;87.38;99817.94;6232142;28;20494;-80
2021/01/20 06:17:02;;;;;;;7.97;3.47;;;;;;;5.55;86.74;99819.56;6247090;28;20052;-80
2021/01/20 06:20:06;;;;;;;9.75;3.42;;;;;;;5.70;87.10;99817.13;6247234;28;20088;-80
2021/01/20 06:23:07;;;;;;;6.10;3.05;;;;;;;5.64;86.70;99812.22;6247310;28;20052;-80
2021/01/20 06:26:13;;;;;;;11.25;3.67;;;;;;;5.69;85.95;99808.47;6229002;28;20051;-80
2021/01/20 06:29:16;;;;;;;8.95;3.28;;;;;;;5.75;85.89;99808.19;6222527;28;20529;-80
2021/01/20 06:32:20;;;;;;;10.30;3.50;;;;;;;5.72;86.17;99804.88;6222965;28;20513;-80
2021/01/20 06:35:31;;;;;;;6.63;3.63;;;;;;;5.52;86.46;99796.25;6222345;28;20050;-80
2021/01/20 06:38:34;;;;;;;14.25;3.05;;;;;;;5.58;86.71;99788.13;6222438;28;20506;-80
2021/01/20 06:41:36;;;;;;;5.28;2.88;;;;;;;5.56;86.20;99796.94;6223060;28;20513;-81
2021/01/20 06:44:37;;;;;;;7.80;3.00;;;;;;;5.57;86.50;99790.81;6222344;28;20069;-80
2021/01/20 06:48:03;;;;;;;6.18;3.30;;;;;;;5.59;86.04;99789.84;6286333;23;20072;-74
2021/01/20 06:51:14;;;;;;;6.70;3.00;;;;;;;5.49;86.81;99795.53;6270816;28;20045;-71
2021/01/20 06:54:16;;;;;;;8.70;3.20;;;;;;;5.60;85.46;99788.06;6266880;28;20046;-71
2021/01/20 06:57:38;;;;;;;7.75;3.15;;;;;;;5.52;86.00;99790.19;6246114;28;20079;-72
2021/01/20 07:00:38;;;;;;;7.38;3.35;;;;;;;5.45;86.62;99791.41;6246211;28;20099;-72
2021/01/20 07:03:40;;;;;;;5.30;3.17;;;;;;;5.45;87.37;99789.66;6246464;28;20130;-72
2021/01/20 07:06:42;;;;;;;4.40;2.70;;;;;;;5.53;86.45;99791.88;6245779;28;20414;-71
2021/01/20 07:10:01;;;;;;;6.32;2.95;;;;;;;5.73;85.29;99798.75;6251779;28;20048;-72
2021/01/20 07:13:18;;;;;;;4.27;2.50;;;;;;;5.76;85.24;99799.44;6271170;28;20485;-72
2021/01/20 07:16:20;;;;;;;5.20;2.65;;;;;;;5.80;84.10;99794.91;6271100;28;20049;-72
2021/01/20 07:19:21;;;;;;;5.32;2.45;;;;;;;5.72;85.36;99802.25;6270632;28;20045;-72
2021/01/20 07:22:23;;;;;;;8.32;3.20;;;;;;;5.76;84.50;99791.59;6271079;28;20045;-72
2021/01/20 07:25:26;;;;;;;7.80;2.85;;;;;;;5.76;85.33;99794.22;6269932;28;20441;-72
2021/01/20 07:28:27;;;;;;;5.35;3.00;;;;;;;5.65;85.14;99790.47;6270714;28;20061;-72
2021/01/20 07:31:28;;;;;;;3.45;2.17;;;;;;;5.72;84.80;99774.47;6270325;28;20060;-72
2021/01/20 07:34:34;;;;;;;6.47;2.88;;;;;;;5.74;85.42;99774.38;6270647;28;20045;-72
2021/01/20 07:37:36;;;;;;;6.25;2.72;;;;;;;5.61;85.78;99776.72;6267192;28;20127;-73
2021/01/20 07:40:39;;;;;;;4.82;2.65;;;;;;;5.58;86.35;99779.47;6288102;28;20052;-72
2021/01/20 07:43:40;;;;;;;6.07;2.70;;;;;;;5.80;84.96;99774.06;6295497;28;20049;-73
2021/01/20 07:46:41;;;;;;;9.15;2.75;;;;;;;5.84;84.08;99763.41;6294963;28;20044;-72
2021/01/20 07:49:52;;;;;;;12.80;4.00;;;;;;;5.82;84.12;99762.66;6295024;28;20052;-72
2021/01/20 07:52:54;;;;;;;9.70;2.92;;;;;;;5.91;83.85;99765.72;6295485;28;20056;-72
2021/01/20 07:55:55;;;;;;;5.07;2.40;;;;;;;6.08;84.14;99758.75;6250227;28;20057;-72
2021/01/20 07:58:57;;;;;;;6.30;2.42;;;;;;;5.98;83.91;99765.34;6246722;28;20053;-73
2021/01/20 08:02:08;;;;;;;7.30;2.78;;;;;;;6.01;84.36;99765.22;6250275;28;20045;-74
2021/01/20 08:05:10;;;;;;;7.32;2.80;;;;;;;6.09;83.37;99759.63;6250219;28;20517;-73
2021/01/20 08:08:14;;;;;;;6.55;2.67;;;;;;;6.19;81.63;99762.59;6249891;28;20049;-75
2021/01/20 08:11:15;;;;;;;4.78;2.42;;;;;;;6.08;82.23;99761.34;6271080;28;20519;-75
2021/01/20 08:14:17;;;;;;;3.72;2.00;;;;;;;6.19;81.17;99762.59;6274438;28;20048;-75
2021/01/20 08:17:19;;;;;;;4.18;2.15;;;;;;;6.40;79.91;99766.69;6274098;28;20053;-75
2021/01/20 08:20:21;;;;;;;5.95;2.53;;;;;;;6.59;78.32;99764.81;6272610;28;20045;-75
2021/01/20 08:23:47;;;;;;;18.83;7.40;;;;;;;6.55;77.85;99765.06;6267800;28;20053;-75
2021/01/20 08:26:55;;;;;;;4.65;2.75;;;;;;;6.50;77.96;99762.69;6261565;28;20052;-75
2021/01/20 08:29:58;;;;;;;5.90;2.35;;;;;;;6.53;76.99;99764.28;6273476;28;20079;-75
2021/01/20 08:33:00;;;;;;;5.10;2.53;;;;;;;6.71;76.88;99767.69;6265538;28;20041;-74
2021/01/20 08:36:00;;;;;;;3.75;2.10;;;;;;;6.62;76.93;99761.19;6255790;28;20066;-73
2021/01/20 08:39:08;;;;;;;4.30;2.25;;;;;;;6.79;74.23;99760.31;6280680;28;20072;-73
2021/01/20 08:42:17;;;;;;;5.50;2.03;;;;;;;6.84;74.00;99761.72;6282008;28;20041;-73
2021/01/20 08:45:33;;;;;;;4.18;2.00;;;;;;;7.05;73.23;99749.28;6273692;28;20052;-73
2021/01/20 08:48:34;;;;;;;5.22;2.17;;;;;;;6.89;74.80;99755.44;6271259;28;20049;-73
2021/01/20 08:51:35;;;;;;;8.05;2.60;;;;;;;7.19;72.11;99752.91;6250147;28;20077;-73
2021/01/20 08:54:47;;;;;;;3.55;1.95;;;;;;;7.02;72.11;99762.50;6263925;28;20056;-73
2021/01/20 08:57:48;;;;;;;5.50;2.47;;;;;;;7.03;73.01;99756.34;6273585;28;20060;-72
2021/01/20 09:00:50;;;;;;;6.70;2.20;;;;;;;7.11;73.32;99748.09;6273281;28;20098;-72
2021/01/20 09:03:55;;;;;;;4.20;1.95;;;;;;;7.30;71.16;99754.00;6273732;28;20182;-72
2021/01/20 09:06:56;;;;;;;5.03;2.22;;;;;;;7.28;72.09;99748.03;6263497;28;20517;-73
2021/01/20 09:09:58;;;;;;;3.25;1.75;;;;;;;7.47;70.11;99739.16;6260651;28;20052;-74
2021/01/20 09:12:59;;;;;;;5.32;2.25;;;;;;;7.37;71.26;99741.44;6272638;28;20048;-73
2021/01/20 09:16:00;;;;;;;4.68;2.25;;;;;;;7.46;70.77;99727.84;6271813;28;20410;-75
2021/01/20 09:19:01;;;;;;;3.45;2.00;;;;;;;7.50;71.57;99744.22;6271460;28;20044;-72
2021/01/20 09:22:01;;;;;;;3.85;2.03;;;;;;;7.60;70.54;99732.28;6271643;28;20072;-72
2021/01/20 09:25:04;;;;;;;4.93;2.00;;;;;;;7.75;70.37;99730.56;6252000;28;20054;-73
2021/01/20 09:28:06;;;;;;;3.58;1.88;;;;;;;7.58;71.01;99734.97;6259250;28;20053;-72
2021/01/20 09:31:07;;;;;;;8.02;1.80;;;;;;;7.57;71.52;99724.63;6270976;28;20041;-72
2021/01/20 09:34:08;;;;;;;9.43;4.30;;;;;;;7.71;71.10;99734.28;6267798;28;20497;-73
2021/01/20 09:37:09;;;;;;;4.10;1.70;;;;;;;7.71;70.31;99726.44;6259968;28;20504;-73
2021/01/20 09:40:14;;;;;;;8.10;2.15;;;;;;;7.71;71.29;99742.13;6270021;28;20045;-71
2021/01/20 09:43:16;;;;;;;7.57;2.08;;;;;;;7.87;71.00;99730.69;6263755;28;20041;-72
2021/01/20 09:46:17;;;;;;;4.15;1.80;;;;;;;7.74;71.76;99749.81;6271723;28;20045;-72
2021/01/20 09:49:18;;;;;;;5.65;1.80;;;;;;;7.84;72.12;99727.41;6270475;28;20091;-72
2021/01/20 09:52:20;;;;;;;2.53;1.40;;;;;;;7.92;70.35;99719.13;6270089;28;20048;-71
2021/01/20 09:55:22;;;;;;;3.22;1.65;;;;;;;7.97;72.34;99719.69;6263695;28;20533;-71
2021/01/20 09:58:23;;;;;;;7.65;1.88;;;;;;;8.14;71.17;99714.28;6268937;28;20052;-72
2021/01/20 10:01:24;;;;;;;6.10;2.00;;;;;;;8.11;71.19;99712.69;6271747;28;20053;-71
2021/01/20 10:04:25;;;;;;;7.53;1.90;;;;;;;8.12;70.95;99701.28;6271094;28;20456;-72
2021/01/20 10:07:26;;;;;;;2.83;1.55;;;;;;;8.12;71.55;99716.97;6272027;28;20053;-72
2021/01/20 10:10:27;;;;;;;3.85;1.92;;;;;;;8.14;72.52;99715.13;6273093;28;20045;-71
2021/01/20 10:13:28;;;;;;;4.80;1.77;;;;;;;8.13;72.35;99717.84;6267228;28;20079;-73
2021/01/20 10:16:29;;;;;;;3.85;1.77;;;;;;;8.14;72.43;99719.53;6268624;28;20489;-72
2021/01/20 10:19:30;;;;;;;4.75;1.55;;;;;;;8.07;72.91;99719.03;6271206;28;20490;-72
2021/01/20 10:22:31;;;;;;;3.70;1.88;;;;;;;8.35;71.68;99706.91;6266723;28;20049;-73
2021/01/20 10:25:33;;;;;;;6.60;2.10;;;;;;;8.13;72.30;99710.84;6262516;28;20056;-72
2021/01/20 10:28:33;;;;;;;5.10;2.13;;;;;;;8.20;72.16;99707.84;6270982;28;20048;-72
2021/01/20 10:31:36;;;;;;;2.80;1.65;;;;;;;8.17;72.33;99705.41;6271523;28;20155;-73
2021/01/20 10:34:37;;;;;;;3.78;1.80;;;;;;;8.16;73.37;99699.31;6271275;28;20425;-72
2021/01/20 10:37:38;;;;;;;3.17;1.42;;;;;;;8.22;72.74;99704.22;6271332;28;20053;-72
2021/01/20 10:40:41;;;;;;;6.20;1.55;;;;;;;8.15;73.20;99700.28;6271999;28;20516;-76
2021/01/20 10:43:43;;;;;;;4.07;1.95;;;;;;;8.20;71.81;99695.59;6296464;28;20061;-72
2021/01/20 10:46:44;;;;;;;2.53;1.70;;;;;;;8.32;73.13;99701.88;6282240;28;20049;-73
2021/01/20 10:49:45;;;;;;;4.13;1.83;;;;;;;8.32;71.86;99699.25;6273793;28;20480;-73
2021/01/20 10:52:46;;;;;;;4.53;1.88;;;;;;;8.32;71.45;99683.56;6287139;28;20041;-73
2021/01/20 10:55:48;;;;;;;2.95;1.85;;;;;;;8.35;70.66;99684.19;6270169;28;20045;-78
2021/01/20 10:58:49;;;;;;;4.00;1.77;;;;;;;8.46;70.78;99685.34;6269535;28;20064;-73
2021/01/20 11:01:51;;;;;;;7.38;1.77;;;;;;;8.33;70.92;99669.53;6272680;28;20041;-72
2021/01/20 11:04:52;;;;;;;4.43;1.70;;;;;;;8.42;69.91;99660.31;6270296;28;20672;-81
2021/01/20 11:07:52;;;;;;;4.65;1.98;;;;;;;8.48;70.23;99662.53;6270488;28;20049;-71
2021/01/20 11:10:54;;;;;;;3.55;1.70;;;;;;;8.56;70.51;99658.50;6272807;28;20402;-71
2021/01/20 11:13:55;;;;;;;3.25;1.63;;;;;;;8.60;70.95;99654.75;6271142;28;20045;-72
2021/01/20 11:16:56;;;;;;;2.65;1.70;;;;;;;8.69;70.77;99668.22;6270169;28;20521;-72
2021/01/20 11:19:57;;;;;;;3.13;1.73;;;;;;;8.56;71.24;99658.50;6269262;28;20048;-71
2021/01/20 11:22:58;;;;;;;3.20;1.60;;;;;;;8.61;71.92;99656.44;6267515;28;20056;-78
2021/01/20 11:26:00;;;;;;;3.58;1.70;;;;;;;8.72;72.00;99661.00;6269846;28;20553;-71
2021/01/20 11:29:00;;;;;;;8.00;1.38;;;;;;;8.79;72.66;99677.16;6295034;28;20052;-73
2021/01/20 11:32:01;;;;;;;3.33;1.80;;;;;;;8.68;71.88;99658.69;6292826;28;20044;-72
2021/01/20 11:35:02;;;;;;;6.03;1.80;;;;;;;8.88;72.54;99645.16;6284527;28;20037;-71
2021/01/20 11:38:04;;;;;;;5.60;1.60;;;;;;;9.11;72.07;99648.91;6275225;28;20053;-72
2021/01/20 11:41:08;;;;;;;3.90;1.67;;;;;;;9.04;71.82;99643.22;6278991;28;20386;-72
2021/01/20 11:44:08;;;;;;;2.67;1.80;;;;;;;9.14;70.47;99633.81;6275473;28;20509;-72
2021/01/20 11:47:09;;;;;;;5.32;1.77;;;;;;;9.31;70.06;99640.59;6276201;28;20052;-72
2021/01/20 11:50:12;;;;;;;3.78;1.73;;;;;;;9.28;69.38;99637.31;6273433;28;20059;-72
2021/01/20 11:53:12;;;;;;;2.33;1.40;;;;;;;9.43;68.51;99624.97;6261242;28;20512;-71
2021/01/20 11:56:14;;;;;;;7.75;1.65;;;;;;;9.42;69.33;99607.56;6274699;28;20056;-73
2021/01/20 11:59:15;;;;;;;5.15;1.80;;;;;;;9.47;68.65;99619.44;6249759;28;20112;-72
2021/01/20 12:02:16;;;;;;;3.17;1.50;;;;;;;9.35;68.14;99615.00;6275363;28;20041;-73
2021/01/20 12:05:17;;;;;;;2.33;1.45;;;;;;;9.27;68.61;99614.69;6270113;28;20436;-74
2021/01/20 12:08:19;;;;;;;4.30;1.67;;;;;;;9.39;67.96;99617.31;6274398;28;20048;-73
2021/01/20 12:11:22;;;;;;;3.55;1.80;;;;;;;9.62;67.04;99605.28;6275304;28;20091;-73
2021/01/20 12:14:23;;;;;;;4.38;1.60;;;;;;;9.66;67.02;99609.38;6278251;28;20051;-72
2021/01/20 12:17:24;;;;;;;1.98;1.45;;;;;;;9.79;67.71;99603.28;6290295;28;20046;-73
2021/01/20 12:20:25;;;;;;;3.75;1.42;;;;;;;9.65;65.38;99597.19;6274504;28;20565;-74
2021/01/20 12:23:26;;;;;;;6.47;1.63;;;;;;;9.74;65.31;99597.53;6269130;28;20493;-72
2021/01/20 12:26:28;;;;;;;4.75;1.60;;;;;;;9.68;65.77;99595.34;6292838;28;20053;-72
2021/01/20 12:29:28;;;;;;;2.35;1.23;;;;;;;9.80;64.81;99595.31;6296150;28;20053;-75
2021/01/20 12:32:29;;;;;;;2.58;1.38;;;;;;;9.81;64.17;99585.66;6299120;28;20672;-72
2021/01/20 12:35:30;;;;;;;3.67;1.60;;;;;;;9.99;65.14;99584.41;6287521;28;20049;-75
2021/01/20 12:38:31;;;;;;;2.05;1.20;;;;;;;10.02;63.98;99584.16;6274173;28;20053;-73
2021/01/20 12:41:33;;;;;;;5.18;1.80;;;;;;;9.98;63.95;99587.94;6278263;28;20102;-73
2021/01/20 12:44:33;;;;;;;2.47;1.58;;;;;;;9.95;64.63;99574.19;6273989;28;20056;-71
2021/01/20 12:47:34;;;;;;;3.70;1.70;;;;;;;10.03;64.06;99579.75;6255978;28;20132;-70
2021/01/20 12:50:35;;;;;;;3.63;1.55;;;;;;;9.90;63.04;99570.13;6257766;28;20053;-71
2021/01/20 12:53:36;;;;;;;3.50;1.40;;;;;;;9.90;64.16;99575.38;6267501;28;20053;-74
2021/01/20 12:56:38;;;;;;;3.25;1.60;;;;;;;9.74;63.71;99569.50;6274466;28;20183;-70
2021/01/20 12:59:39;;;;;;;2.75;1.75;;;;;;;9.88;63.46;99565.94;6273257;28;20049;-71
2021/01/20 13:02:39;;;;;;;3.80;1.50;;;;;;;9.94;62.69;99557.63;6273573;28;20056;-70
2021/01/20 13:05:40;;;;;;;4.55;1.55;;;;;;;9.94;63.02;99565.50;6273253;28;20059;-70
2021/01/20 13:08:41;;;;;;;2.58;1.25;;;;;;;9.96;61.66;99555.75;6287343;28;20479;-71
2021/01/20 13:11:44;;;;;;;5.85;1.38;;;;;;;10.05;62.13;99559.50;6296608;28;20421;-72
2021/01/20 13:14:45;;;;;;;3.50;1.60;;;;;;;10.00;62.34;99562.47;6289443;28;20103;-71
2021/01/20 13:17:46;;;;;;;3.90;1.38;;;;;;;9.95;61.33;99550.59;6272706;28;20453;-71
2021/01/20 13:20:47;;;;;;;3.13;1.52;;;;;;;9.84;62.20;99549.56;6280481;28;20052;-71
2021/01/20 13:23:48;;;;;;;2.97;1.65;;;;;;;10.05;60.72;99544.59;6279596;28;20501;-71
2021/01/20 13:26:50;;;;;;;4.38;1.60;;;;;;;10.05;61.00;99544.59;6285869;28;20049;-72
2021/01/20 13:29:51;;;;;;;3.28;1.63;;;;;;;9.98;61.50;99548.59;6272325;28;20072;-72
2021/01/20 13:32:52;;;;;;;2.88;1.55;;;;;;;9.86;61.75;99552.09;6272958;28;20048;-72
2021/01/20 13:35:53;;;;;;;2.08;1.35;;;;;;;9.81;61.87;99555.03;6277642;28;20052;-72
2021/01/20 13:38:53;;;;;;;2.40;1.30;;;;;;;9.77;61.29;99564.06;6280541;28;20052;-71
2021/01/20 13:41:55;;;;;;;2.45;1.42;;;;;;;9.78;60.12;99557.03;6273623;28;20053;-72
2021/01/20 13:44:56;;;;;;;2.30;1.73;;;;;;;9.67;60.93;99547.25;6277225;28;20048;-71
2021/01/20 13:47:57;;;;;;;4.32;1.95;;;;;;;9.60;61.61;99559.97;6296933;28;20056;-72
2021/01/20 13:50:58;;;;;;;3.25;1.67;;;;;;;9.67;62.33;99555.13;6285976;28;20050;-71
2021/01/20 13:53:59;;;;;;;5.35;1.60;;;;;;;9.60;60.86;99554.72;6277356;28;20048;-71
2021/01/20 13:57:02;;;;;;;3.90;1.58;;;;;;;9.70;58.40;99557.53;6276953;28;20056;-74
2021/01/20 14:00:05;;;;;;;2.70;1.40;;;;;;;9.83;59.73;99539.16;6272250;28;20053;-72
2021/01/20 14:03:05;;;;;;;4.60;1.60;;;;;;;9.84;58.60;99530.34;6271992;28;20123;-81
2021/01/20 14:06:06;;;;;;;7.07;1.85;;;;;;;9.78;59.66;99523.75;6271269;28;20073;-72
2021/01/20 14:09:07;;;;;;;4.15;1.80;;;;;;;9.90;59.50;99527.28;6272330;28;20049;-72
2021/01/20 14:12:09;;;;;;;3.20;1.55;;;;;;;9.58;59.44;99535.63;6273178;28;20049;-72
2021/01/20 14:15:11;;;;;;;4.88;1.83;;;;;;;9.72;59.15;99524.19;6295911;28;20052;-72
2021/01/20 14:18:12;;;;;;;6.47;1.90;;;;;;;9.76;61.59;99530.03;6296076;28;20056;-73
2021/01/20 14:21:13;;;;;;;4.82;1.90;;;;;;;9.71;60.30;99526.91;6284111;28;20387;-74
2021/01/20 14:24:19;;;;;;;5.93;1.70;;;;;;;9.89;60.39;99523.81;6274200;28;20053;-72